sensor_id;sensor_type;location;lat;lon;timestamp;P1;durP1;ratioP1;P2;durP2;ratioP2
78858;SDS011;68210;52.032;4.634;2023-06-14T00:01:49;4.63;;;2.33;;
78858;SDS011;68210;52.032;4.634;2023-06-14T00:03:49;3.67;;;2.63;;
78858;SDS011;68210;52.032;4.634;2023-06-14T00:05:50;4.68;;;2.60;;
78858;SDS011;68210;52.032;4.634;2023-06-14T00:07:50;5.45;;;2.67;;
78858;SDS011;68210;52.032;4.634;2023-06-14T00:09:53;4.57;;;2.40;;
78858;SDS011;68210;52.032;4.634;2023-06-14T00:11:53;5.10;;;2.55;;
78858;SDS011;68210;52.032;4.634;2023-06-14T00:13:54;6.18;;;2.88;;
78858;SDS011;68210;52.032;4.634;2023-06-14T00:15:54;4.72;;;2.40;;
78858;SDS011;68210;52.032;4.634;2023-06-14T00:17:54;6.40;;;2.67;;
78858;SDS011;68210;52.032;4.634;2023-06-14T00:19:57;5.53;;;2.70;;
78858;SDS011;68210;52.032;4.634;2023-06-14T00:21:58;5.50;;;2.58;;
78858;SDS011;68210;52.032;4.634;2023-06-14T00:23:58;4.18;;;2.70;;
78858;SDS011;68210;52.032;4.634;2023-06-14T00:25:59;3.83;;;2.58;;
78858;SDS011;68210;52.032;4.634;2023-06-14T00:28:00;4.93;;;2.75;;
78858;SDS011;68210;52.032;4.634;2023-06-14T00:30:01;4.45;;;2.90;;
78858;SDS011;68210;52.032;4.634;2023-06-14T00:32:01;6.03;;;2.58;;
78858;SDS011;68210;52.032;4.634;2023-06-14T00:34:01;5.70;;;3.05;;
78858;SDS011;68210;52.032;4.634;2023-06-14T00:36:02;8.55;;;3.00;;
78858;SDS011;68210;52.032;4.634;2023-06-14T00:38:02;5.13;;;2.72;;
78858;SDS011;68210;52.032;4.634;2023-06-14T00:40:03;3.70;;;2.50;;
78858;SDS011;68210;52.032;4.634;2023-06-14T00:42:04;4.78;;;2.85;;
78858;SDS011;68210;52.032;4.634;2023-06-14T00:44:05;6.72;;;2.47;;
78858;SDS011;68210;52.032;4.634;2023-06-14T00:46:06;5.13;;;2.42;;
78858;SDS011;68210;52.032;4.634;2023-06-14T00:48:06;6.75;;;3.38;;
78858;SDS011;68210;52.032;4.634;2023-06-14T00:50:08;5.65;;;2.80;;
78858;SDS011;68210;52.032;4.634;2023-06-14T00:52:09;6.53;;;3.55;;
78858;SDS011;68210;52.032;4.634;2023-06-14T00:54:12;7.13;;;3.10;;
78858;SDS011;68210;52.032;4.634;2023-06-14T00:56:13;4.63;;;2.80;;
78858;SDS011;68210;52.032;4.634;2023-06-14T00:58:14;6.28;;;2.72;;
78858;SDS011;68210;52.032;4.634;2023-06-14T01:00:15;5.20;;;2.63;;
78858;SDS011;68210;52.032;4.634;2023-06-14T01:02:16;5.43;;;2.95;;
78858;SDS011;68210;52.032;4.634;2023-06-14T01:04:16;8.52;;;3.55;;
78858;SDS011;68210;52.032;4.634;2023-06-14T01:11:16;4.32;;;2.72;;
78858;SDS011;68210;52.032;4.634;2023-06-14T01:15:36;3.92;;;2.45;;
78858;SDS011;68210;52.032;4.634;2023-06-14T01:17:38;6.20;;;2.75;;
78858;SDS011;68210;52.032;4.634;2023-06-14T01:19:44;9.75;;;3.08;;
78858;SDS011;68210;52.032;4.634;2023-06-14T01:21:45;4.95;;;2.90;;
78858;SDS011;68210;52.032;4.634;2023-06-14T01:23:46;5.95;;;2.95;;
78858;SDS011;68210;52.032;4.634;2023-06-14T01:25:52;5.60;;;2.95;;
78858;SDS011;68210;52.032;4.634;2023-06-14T01:27:53;8.52;;;2.97;;
78858;SDS011;68210;52.032;4.634;2023-06-14T01:29:58;5.93;;;2.67;;
78858;SDS011;68210;52.032;4.634;2023-06-14T01:32:00;7.30;;;3.10;;
78858;SDS011;68210;52.032;4.634;2023-06-14T01:34:01;6.47;;;2.47;;
78858;SDS011;68210;52.032;4.634;2023-06-14T01:36:02;4.65;;;2.63;;
78858;SDS011;68210;52.032;4.634;2023-06-14T01:38:04;4.75;;;2.72;;
78858;SDS011;68210;52.032;4.634;2023-06-14T01:40:06;4.55;;;2.53;;
78858;SDS011;68210;52.032;4.634;2023-06-14T01:42:07;5.03;;;2.83;;
78858;SDS011;68210;52.032;4.634;2023-06-14T01:44:08;6.38;;;2.95;;
78858;SDS011;68210;52.032;4.634;2023-06-14T01:46:09;4.35;;;2.72;;
78858;SDS011;68210;52.032;4.634;2023-06-14T01:48:11;8.20;;;2.95;;
78858;SDS011;68210;52.032;4.634;2023-06-14T01:50:12;5.63;;;2.92;;
78858;SDS011;68210;52.032;4.634;2023-06-14T01:52:13;6.57;;;2.47;;
78858;SDS011;68210;52.032;4.634;2023-06-14T01:54:13;6.07;;;2.92;;
78858;SDS011;68210;52.032;4.634;2023-06-14T01:56:13;4.93;;;2.90;;
78858;SDS011;68210;52.032;4.634;2023-06-14T01:58:14;6.82;;;3.33;;
78858;SDS011;68210;52.032;4.634;2023-06-14T02:00:16;4.93;;;3.00;;
78858;SDS011;68210;52.032;4.634;2023-06-14T02:02:18;5.30;;;2.65;;
78858;SDS011;68210;52.032;4.634;2023-06-14T02:04:18;8.52;;;3.13;;
78858;SDS011;68210;52.032;4.634;2023-06-14T02:06:18;5.55;;;2.78;;
78858;SDS011;68210;52.032;4.634;2023-06-14T02:08:19;6.45;;;3.10;;
78858;SDS011;68210;52.032;4.634;2023-06-14T02:10:20;4.20;;;2.80;;
78858;SDS011;68210;52.032;4.634;2023-06-14T02:12:20;4.07;;;2.70;;
78858;SDS011;68210;52.032;4.634;2023-06-14T02:14:20;6.65;;;2.60;;
78858;SDS011;68210;52.032;4.634;2023-06-14T02:16:21;4.75;;;2.90;;
78858;SDS011;68210;52.032;4.634;2023-06-14T02:18:22;9.65;;;2.58;;
78858;SDS011;68210;52.032;4.634;2023-06-14T02:20:23;5.65;;;2.67;;
78858;SDS011;68210;52.032;4.634;2023-06-14T02:22:23;5.47;;;2.47;;
78858;SDS011;68210;52.032;4.634;2023-06-14T02:24:24;4.30;;;2.35;;
78858;SDS011;68210;52.032;4.634;2023-06-14T02:26:24;6.03;;;2.53;;
78858;SDS011;68210;52.032;4.634;2023-06-14T02:28:25;8.40;;;3.03;;
78858;SDS011;68210;52.032;4.634;2023-06-14T02:30:25;4.78;;;2.58;;
78858;SDS011;68210;52.032;4.634;2023-06-14T02:32:26;5.53;;;2.83;;
78858;SDS011;68210;52.032;4.634;2023-06-14T02:34:29;8.45;;;2.72;;
78858;SDS011;68210;52.032;4.634;2023-06-14T02:36:29;6.55;;;2.58;;
78858;SDS011;68210;52.032;4.634;2023-06-14T02:38:30;6.38;;;2.90;;
78858;SDS011;68210;52.032;4.634;2023-06-14T02:40:30;5.80;;;2.80;;
78858;SDS011;68210;52.032;4.634;2023-06-14T02:42:31;4.38;;;2.30;;
78858;SDS011;68210;52.032;4.634;2023-06-14T02:44:31;4.93;;;2.75;;
78858;SDS011;68210;52.032;4.634;2023-06-14T02:46:32;4.80;;;2.17;;
78858;SDS011;68210;52.032;4.634;2023-06-14T02:48:32;5.60;;;2.97;;
78858;SDS011;68210;52.032;4.634;2023-06-14T02:50:33;5.72;;;2.75;;
78858;SDS011;68210;52.032;4.634;2023-06-14T02:52:33;5.35;;;2.97;;
78858;SDS011;68210;52.032;4.634;2023-06-14T02:54:34;4.35;;;2.28;;
78858;SDS011;68210;52.032;4.634;2023-06-14T02:56:34;6.00;;;2.63;;
78858;SDS011;68210;52.032;4.634;2023-06-14T02:58:36;6.07;;;3.00;;
78858;SDS011;68210;52.032;4.634;2023-06-14T03:00:37;7.05;;;2.33;;
78858;SDS011;68210;52.032;4.634;2023-06-14T03:02:38;4.72;;;2.17;;
78858;SDS011;68210;52.032;4.634;2023-06-14T03:04:38;4.85;;;2.70;;
78858;SDS011;68210;52.032;4.634;2023-06-14T03:06:39;4.43;;;2.33;;
78858;SDS011;68210;52.032;4.634;2023-06-14T03:08:40;7.05;;;2.40;;
78858;SDS011;68210;52.032;4.634;2023-06-14T03:10:41;5.60;;;2.35;;
78858;SDS011;68210;52.032;4.634;2023-06-14T03:12:43;5.80;;;2.70;;
78858;SDS011;68210;52.032;4.634;2023-06-14T03:14:43;5.03;;;2.80;;
78858;SDS011;68210;52.032;4.634;2023-06-14T03:16:45;9.18;;;3.05;;
78858;SDS011;68210;52.032;4.634;2023-06-14T03:18:47;4.30;;;2.15;;
78858;SDS011;68210;52.032;4.634;2023-06-14T03:20:51;8.13;;;2.33;;
78858;SDS011;68210;52.032;4.634;2023-06-14T03:22:52;4.13;;;2.42;;
78858;SDS011;68210;52.032;4.634;2023-06-14T03:24:54;5.95;;;2.50;;
78858;SDS011;68210;52.032;4.634;2023-06-14T03:26:55;5.30;;;2.70;;
78858;SDS011;68210;52.032;4.634;2023-06-14T03:28:56;4.93;;;2.65;;
78858;SDS011;68210;52.032;4.634;2023-06-14T03:30:56;9.23;;;3.15;;
78858;SDS011;68210;52.032;4.634;2023-06-14T03:32:57;5.22;;;2.65;;
78858;SDS011;68210;52.032;4.634;2023-06-14T03:35:01;8.75;;;2.55;;
78858;SDS011;68210;52.032;4.634;2023-06-14T03:37:01;6.15;;;2.70;;
78858;SDS011;68210;52.032;4.634;2023-06-14T03:39:01;6.95;;;2.47;;
78858;SDS011;68210;52.032;4.634;2023-06-14T03:41:02;5.25;;;2.53;;
78858;SDS011;68210;52.032;4.634;2023-06-14T03:43:02;4.43;;;2.30;;
78858;SDS011;68210;52.032;4.634;2023-06-14T03:45:02;6.10;;;2.63;;
78858;SDS011;68210;52.032;4.634;2023-06-14T03:47:04;5.57;;;3.15;;
78858;SDS011;68210;52.032;4.634;2023-06-14T03:49:04;5.55;;;2.45;;
78858;SDS011;68210;52.032;4.634;2023-06-14T03:51:04;5.85;;;2.65;;
78858;SDS011;68210;52.032;4.634;2023-06-14T03:53:05;6.57;;;3.10;;
78858;SDS011;68210;52.032;4.634;2023-06-14T03:55:06;5.43;;;2.80;;
78858;SDS011;68210;52.032;4.634;2023-06-14T03:59:09;4.50;;;2.60;;
78858;SDS011;68210;52.032;4.634;2023-06-14T04:01:09;5.13;;;2.80;;
78858;SDS011;68210;52.032;4.634;2023-06-14T04:05:13;4.90;;;2.53;;
78858;SDS011;68210;52.032;4.634;2023-06-14T04:07:16;4.55;;;2.65;;
78858;SDS011;68210;52.032;4.634;2023-06-14T04:09:19;6.97;;;2.90;;
78858;SDS011;68210;52.032;4.634;2023-06-14T04:11:20;4.95;;;2.67;;
78858;SDS011;68210;52.032;4.634;2023-06-14T04:13:20;9.60;;;2.42;;
78858;SDS011;68210;52.032;4.634;2023-06-14T04:15:20;5.47;;;2.28;;
78858;SDS011;68210;52.032;4.634;2023-06-14T04:17:21;6.43;;;3.22;;
78858;SDS011;68210;52.032;4.634;2023-06-14T04:19:21;5.75;;;2.70;;
78858;SDS011;68210;52.032;4.634;2023-06-14T04:21:21;5.10;;;2.88;;
78858;SDS011;68210;52.032;4.634;2023-06-14T04:23:23;4.75;;;2.75;;
78858;SDS011;68210;52.032;4.634;2023-06-14T04:25:23;4.80;;;2.38;;
78858;SDS011;68210;52.032;4.634;2023-06-14T04:27:26;4.75;;;2.60;;
78858;SDS011;68210;52.032;4.634;2023-06-14T04:29:26;6.05;;;3.05;;
78858;SDS011;68210;52.032;4.634;2023-06-14T04:31:29;4.90;;;2.47;;
78858;SDS011;68210;52.032;4.634;2023-06-14T04:33:36;7.90;;;2.30;;
78858;SDS011;68210;52.032;4.634;2023-06-14T04:35:43;5.38;;;2.75;;
78858;SDS011;68210;52.032;4.634;2023-06-14T04:37:47;4.78;;;2.50;;
78858;SDS011;68210;52.032;4.634;2023-06-14T04:39:48;8.05;;;2.92;;
78858;SDS011;68210;52.032;4.634;2023-06-14T04:41:49;5.90;;;2.60;;
78858;SDS011;68210;52.032;4.634;2023-06-14T04:43:57;5.18;;;2.47;;
78858;SDS011;68210;52.032;4.634;2023-06-14T04:45:58;6.93;;;2.53;;
78858;SDS011;68210;52.032;4.634;2023-06-14T04:47:59;6.85;;;2.60;;
78858;SDS011;68210;52.032;4.634;2023-06-14T04:49:59;3.58;;;2.35;;
78858;SDS011;68210;52.032;4.634;2023-06-14T04:52:00;5.90;;;2.42;;
78858;SDS011;68210;52.032;4.634;2023-06-14T04:54:01;9.20;;;3.13;;
78858;SDS011;68210;52.032;4.634;2023-06-14T04:56:03;6.82;;;2.42;;
78858;SDS011;68210;52.032;4.634;2023-06-14T04:58:03;9.20;;;2.63;;
78858;SDS011;68210;52.032;4.634;2023-06-14T05:00:05;6.65;;;2.45;;
78858;SDS011;68210;52.032;4.634;2023-06-14T05:02:06;6.45;;;2.20;;
78858;SDS011;68210;52.032;4.634;2023-06-14T05:04:07;7.70;;;2.85;;
78858;SDS011;68210;52.032;4.634;2023-06-14T05:06:07;5.00;;;2.60;;
78858;SDS011;68210;52.032;4.634;2023-06-14T05:08:07;8.13;;;2.70;;
78858;SDS011;68210;52.032;4.634;2023-06-14T05:10:09;5.95;;;2.55;;
78858;SDS011;68210;52.032;4.634;2023-06-14T05:12:10;5.03;;;2.67;;
78858;SDS011;68210;52.032;4.634;2023-06-14T05:14:10;10.00;;;2.85;;
78858;SDS011;68210;52.032;4.634;2023-06-14T05:16:11;6.15;;;2.35;;
78858;SDS011;68210;52.032;4.634;2023-06-14T05:18:12;5.47;;;2.92;;
78858;SDS011;68210;52.032;4.634;2023-06-14T05:20:13;4.80;;;2.55;;
78858;SDS011;68210;52.032;4.634;2023-06-14T05:22:13;6.63;;;2.72;;
78858;SDS011;68210;52.032;4.634;2023-06-14T05:24:14;6.82;;;3.08;;
78858;SDS011;68210;52.032;4.634;2023-06-14T05:26:15;4.72;;;2.25;;
78858;SDS011;68210;52.032;4.634;2023-06-14T05:28:15;6.78;;;2.30;;
78858;SDS011;68210;52.032;4.634;2023-06-14T05:30:16;5.00;;;2.85;;
78858;SDS011;68210;52.032;4.634;2023-06-14T05:32:16;5.72;;;2.67;;
78858;SDS011;68210;52.032;4.634;2023-06-14T05:34:17;5.80;;;2.47;;
78858;SDS011;68210;52.032;4.634;2023-06-14T05:36:17;8.10;;;2.50;;
78858;SDS011;68210;52.032;4.634;2023-06-14T05:38:18;9.02;;;2.50;;
78858;SDS011;68210;52.032;4.634;2023-06-14T05:40:18;6.13;;;3.20;;
78858;SDS011;68210;52.032;4.634;2023-06-14T05:42:19;5.18;;;2.55;;
78858;SDS011;68210;52.032;4.634;2023-06-14T05:44:19;7.25;;;2.38;;
78858;SDS011;68210;52.032;4.634;2023-06-14T05:46:19;7.95;;;2.78;;
78858;SDS011;68210;52.032;4.634;2023-06-14T05:50:22;6.27;;;3.03;;
78858;SDS011;68210;52.032;4.634;2023-06-14T05:52:22;8.53;;;2.30;;
78858;SDS011;68210;52.032;4.634;2023-06-14T05:54:22;7.63;;;2.27;;
78858;SDS011;68210;52.032;4.634;2023-06-14T05:56:23;5.43;;;2.63;;
78858;SDS011;68210;52.032;4.634;2023-06-14T05:58:23;4.07;;;2.45;;
78858;SDS011;68210;52.032;4.634;2023-06-14T06:00:23;4.00;;;2.65;;
78858;SDS011;68210;52.032;4.634;2023-06-14T06:02:24;14.20;;;3.22;;
78858;SDS011;68210;52.032;4.634;2023-06-14T06:04:24;4.80;;;3.00;;
78858;SDS011;68210;52.032;4.634;2023-06-14T06:06:25;5.40;;;3.47;;
78858;SDS011;68210;52.032;4.634;2023-06-14T06:08:26;6.22;;;2.67;;
78858;SDS011;68210;52.032;4.634;2023-06-14T06:10:27;6.50;;;2.92;;
78858;SDS011;68210;52.032;4.634;2023-06-14T06:12:27;5.22;;;2.83;;
78858;SDS011;68210;52.032;4.634;2023-06-14T06:14:27;6.22;;;2.17;;
78858;SDS011;68210;52.032;4.634;2023-06-14T06:16:28;5.40;;;2.22;;
78858;SDS011;68210;52.032;4.634;2023-06-14T06:18:28;8.32;;;2.90;;
78858;SDS011;68210;52.032;4.634;2023-06-14T06:20:29;5.93;;;2.38;;
78858;SDS011;68210;52.032;4.634;2023-06-14T06:22:31;7.35;;;3.90;;
78858;SDS011;68210;52.032;4.634;2023-06-14T06:24:32;4.72;;;2.40;;
78858;SDS011;68210;52.032;4.634;2023-06-14T06:26:32;7.28;;;2.90;;
78858;SDS011;68210;52.032;4.634;2023-06-14T06:28:32;7.18;;;2.88;;
78858;SDS011;68210;52.032;4.634;2023-06-14T06:30:33;5.80;;;2.65;;
78858;SDS011;68210;52.032;4.634;2023-06-14T06:32:33;5.00;;;2.75;;
78858;SDS011;68210;52.032;4.634;2023-06-14T06:34:34;11.27;;;2.78;;
78858;SDS011;68210;52.032;4.634;2023-06-14T06:36:35;6.00;;;2.28;;
78858;SDS011;68210;52.032;4.634;2023-06-14T06:38:36;7.47;;;2.92;;
78858;SDS011;68210;52.032;4.634;2023-06-14T06:40:37;7.05;;;2.85;;
78858;SDS011;68210;52.032;4.634;2023-06-14T06:42:37;5.72;;;2.70;;
78858;SDS011;68210;52.032;4.634;2023-06-14T06:44:37;5.30;;;2.63;;
78858;SDS011;68210;52.032;4.634;2023-06-14T06:46:38;9.07;;;2.72;;
78858;SDS011;68210;52.032;4.634;2023-06-14T06:48:42;7.10;;;2.63;;
78858;SDS011;68210;52.032;4.634;2023-06-14T06:50:43;9.27;;;2.50;;
78858;SDS011;68210;52.032;4.634;2023-06-14T06:52:43;4.05;;;2.67;;
78858;SDS011;68210;52.032;4.634;2023-06-14T06:54:45;5.30;;;2.42;;
78858;SDS011;68210;52.032;4.634;2023-06-14T06:56:45;5.43;;;2.90;;
78858;SDS011;68210;52.032;4.634;2023-06-14T06:58:46;6.28;;;3.13;;
78858;SDS011;68210;52.032;4.634;2023-06-14T07:00:46;8.02;;;2.97;;
78858;SDS011;68210;52.032;4.634;2023-06-14T07:02:46;8.57;;;2.80;;
78858;SDS011;68210;52.032;4.634;2023-06-14T07:04:47;8.50;;;3.03;;
78858;SDS011;68210;52.032;4.634;2023-06-14T07:06:47;5.07;;;2.75;;
78858;SDS011;68210;52.032;4.634;2023-06-14T07:08:48;5.88;;;3.22;;
78858;SDS011;68210;52.032;4.634;2023-06-14T07:10:48;6.35;;;2.63;;
78858;SDS011;68210;52.032;4.634;2023-06-14T07:12:49;9.82;;;2.65;;
78858;SDS011;68210;52.032;4.634;2023-06-14T07:14:49;5.68;;;2.70;;
78858;SDS011;68210;52.032;4.634;2023-06-14T07:16:50;9.82;;;2.92;;
78858;SDS011;68210;52.032;4.634;2023-06-14T07:18:50;3.95;;;2.70;;
78858;SDS011;68210;52.032;4.634;2023-06-14T07:20:50;7.13;;;2.80;;
78858;SDS011;68210;52.032;4.634;2023-06-14T07:22:52;6.47;;;3.00;;
78858;SDS011;68210;52.032;4.634;2023-06-14T07:24:52;5.95;;;3.25;;
78858;SDS011;68210;52.032;4.634;2023-06-14T07:26:52;6.07;;;2.70;;
78858;SDS011;68210;52.032;4.634;2023-06-14T07:28:53;7.30;;;2.65;;
78858;SDS011;68210;52.032;4.634;2023-06-14T07:30:53;4.43;;;2.83;;
78858;SDS011;68210;52.032;4.634;2023-06-14T07:32:53;6.18;;;3.25;;
78858;SDS011;68210;52.032;4.634;2023-06-14T07:34:54;4.80;;;2.60;;
78858;SDS011;68210;52.032;4.634;2023-06-14T07:36:54;6.43;;;2.83;;
78858;SDS011;68210;52.032;4.634;2023-06-14T07:38:55;8.60;;;2.45;;
78858;SDS011;68210;52.032;4.634;2023-06-14T07:40:55;5.30;;;2.47;;
78858;SDS011;68210;52.032;4.634;2023-06-14T07:42:56;11.80;;;3.42;;
78858;SDS011;68210;52.032;4.634;2023-06-14T07:44:56;5.78;;;2.95;;
78858;SDS011;68210;52.032;4.634;2023-06-14T07:46:56;7.68;;;2.90;;
78858;SDS011;68210;52.032;4.634;2023-06-14T07:48:59;10.50;;;3.35;;
78858;SDS011;68210;52.032;4.634;2023-06-14T07:51:00;11.80;;;3.35;;
78858;SDS011;68210;52.032;4.634;2023-06-14T07:53:01;13.00;;;3.65;;
78858;SDS011;68210;52.032;4.634;2023-06-14T07:55:01;4.40;;;2.97;;
78858;SDS011;68210;52.032;4.634;2023-06-14T07:57:02;6.82;;;3.00;;
78858;SDS011;68210;52.032;4.634;2023-06-14T07:59:02;5.75;;;2.60;;
78858;SDS011;68210;52.032;4.634;2023-06-14T08:01:03;9.60;;;3.17;;
78858;SDS011;68210;52.032;4.634;2023-06-14T08:03:06;8.05;;;2.40;;
78858;SDS011;68210;52.032;4.634;2023-06-14T08:05:06;5.25;;;2.92;;
78858;SDS011;68210;52.032;4.634;2023-06-14T08:07:07;8.40;;;3.05;;
78858;SDS011;68210;52.032;4.634;2023-06-14T08:09:07;5.55;;;2.67;;
78858;SDS011;68210;52.032;4.634;2023-06-14T08:11:08;7.43;;;3.03;;
78858;SDS011;68210;52.032;4.634;2023-06-14T08:13:08;5.28;;;2.72;;
78858;SDS011;68210;52.032;4.634;2023-06-14T08:15:10;4.63;;;2.42;;
78858;SDS011;68210;52.032;4.634;2023-06-14T08:17:10;8.23;;;2.85;;
78858;SDS011;68210;52.032;4.634;2023-06-14T08:19:10;9.57;;;2.95;;
78858;SDS011;68210;52.032;4.634;2023-06-14T08:21:11;6.35;;;2.95;;
78858;SDS011;68210;52.032;4.634;2023-06-14T08:23:11;7.15;;;3.03;;
78858;SDS011;68210;52.032;4.634;2023-06-14T08:25:12;8.73;;;2.88;;
78858;SDS011;68210;52.032;4.634;2023-06-14T08:27:13;7.25;;;2.83;;
78858;SDS011;68210;52.032;4.634;2023-06-14T08:29:14;5.50;;;2.85;;
78858;SDS011;68210;52.032;4.634;2023-06-14T08:31:15;5.68;;;2.70;;
78858;SDS011;68210;52.032;4.634;2023-06-14T08:33:15;7.60;;;2.67;;
78858;SDS011;68210;52.032;4.634;2023-06-14T08:35:16;5.35;;;2.72;;
78858;SDS011;68210;52.032;4.634;2023-06-14T08:37:16;7.38;;;3.03;;
78858;SDS011;68210;52.032;4.634;2023-06-14T08:39:16;4.25;;;2.70;;
78858;SDS011;68210;52.032;4.634;2023-06-14T08:41:20;6.10;;;2.72;;
78858;SDS011;68210;52.032;4.634;2023-06-14T08:43:22;5.90;;;3.00;;
78858;SDS011;68210;52.032;4.634;2023-06-14T08:45:23;6.28;;;2.83;;
78858;SDS011;68210;52.032;4.634;2023-06-14T08:49:26;4.10;;;2.50;;
78858;SDS011;68210;52.032;4.634;2023-06-14T08:51:27;8.25;;;2.20;;
78858;SDS011;68210;52.032;4.634;2023-06-14T08:53:33;5.15;;;2.65;;
78858;SDS011;68210;52.032;4.634;2023-06-14T08:55:41;7.45;;;2.55;;
78858;SDS011;68210;52.032;4.634;2023-06-14T08:57:43;6.80;;;2.55;;
78858;SDS011;68210;52.032;4.634;2023-06-14T08:59:48;12.18;;;3.08;;
78858;SDS011;68210;52.032;4.634;2023-06-14T09:01:53;4.70;;;2.45;;
78858;SDS011;68210;52.032;4.634;2023-06-14T09:03:54;4.68;;;2.47;;
78858;SDS011;68210;52.032;4.634;2023-06-14T09:05:57;11.82;;;2.70;;
78858;SDS011;68210;52.032;4.634;2023-06-14T09:08:01;4.75;;;2.10;;
78858;SDS011;68210;52.032;4.634;2023-06-14T09:10:08;5.13;;;2.20;;
78858;SDS011;68210;52.032;4.634;2023-06-14T09:12:10;4.38;;;2.40;;
78858;SDS011;68210;52.032;4.634;2023-06-14T09:14:12;7.10;;;2.70;;
78858;SDS011;68210;52.032;4.634;2023-06-14T09:16:13;3.60;;;2.10;;
78858;SDS011;68210;52.032;4.634;2023-06-14T09:18:13;5.07;;;2.67;;
78858;SDS011;68210;52.032;4.634;2023-06-14T09:20:14;3.47;;;2.38;;
78858;SDS011;68210;52.032;4.634;2023-06-14T09:22:18;4.88;;;2.33;;
78858;SDS011;68210;52.032;4.634;2023-06-14T09:24:18;5.55;;;2.58;;
78858;SDS011;68210;52.032;4.634;2023-06-14T09:26:19;6.30;;;2.38;;
78858;SDS011;68210;52.032;4.634;2023-06-14T09:28:20;4.82;;;3.05;;
78858;SDS011;68210;52.032;4.634;2023-06-14T09:30:27;9.73;;;2.60;;
78858;SDS011;68210;52.032;4.634;2023-06-14T09:32:28;5.75;;;2.20;;
78858;SDS011;68210;52.032;4.634;2023-06-14T09:34:29;7.00;;;2.80;;
78858;SDS011;68210;52.032;4.634;2023-06-14T09:36:30;6.07;;;2.70;;
78858;SDS011;68210;52.032;4.634;2023-06-14T09:38:32;6.30;;;2.85;;
78858;SDS011;68210;52.032;4.634;2023-06-14T09:40:34;4.35;;;2.50;;
78858;SDS011;68210;52.032;4.634;2023-06-14T09:42:38;5.63;;;2.53;;
78858;SDS011;68210;52.032;4.634;2023-06-14T09:44:40;4.65;;;2.50;;
78858;SDS011;68210;52.032;4.634;2023-06-14T09:46:41;4.95;;;2.55;;
78858;SDS011;68210;52.032;4.634;2023-06-14T09:48:41;4.78;;;2.42;;
78858;SDS011;68210;52.032;4.634;2023-06-14T09:50:43;5.60;;;2.17;;
78858;SDS011;68210;52.032;4.634;2023-06-14T09:52:46;6.78;;;2.33;;
78858;SDS011;68210;52.032;4.634;2023-06-14T09:54:49;4.53;;;2.22;;
78858;SDS011;68210;52.032;4.634;2023-06-14T09:56:51;5.15;;;2.00;;
78858;SDS011;68210;52.032;4.634;2023-06-14T09:58:55;2.92;;;2.20;;
78858;SDS011;68210;52.032;4.634;2023-06-14T10:00:57;9.50;;;2.53;;
78858;SDS011;68210;52.032;4.634;2023-06-14T10:02:59;5.15;;;2.60;;
78858;SDS011;68210;52.032;4.634;2023-06-14T10:07:06;3.88;;;2.17;;
78858;SDS011;68210;52.032;4.634;2023-06-14T10:09:08;7.00;;;2.00;;
78858;SDS011;68210;52.032;4.634;2023-06-14T10:11:09;5.97;;;2.20;;
78858;SDS011;68210;52.032;4.634;2023-06-14T10:13:12;5.25;;;1.95;;
78858;SDS011;68210;52.032;4.634;2023-06-14T10:15:24;2.83;;;1.88;;
78858;SDS011;68210;52.032;4.634;2023-06-14T10:17:33;3.22;;;1.90;;
78858;SDS011;68210;52.032;4.634;2023-06-14T10:19:41;7.47;;;1.83;;
78858;SDS011;68210;52.032;4.634;2023-06-14T10:21:54;3.53;;;1.90;;
78858;SDS011;68210;52.032;4.634;2023-06-14T10:24:03;2.78;;;1.95;;
78858;SDS011;68210;52.032;4.634;2023-06-14T10:26:07;4.10;;;1.85;;
78858;SDS011;68210;52.032;4.634;2023-06-14T10:28:20;4.18;;;2.25;;
78858;SDS011;68210;52.032;4.634;2023-06-14T10:30:25;3.80;;;2.30;;
78858;SDS011;68210;52.032;4.634;2023-06-14T10:32:25;3.58;;;1.92;;
78858;SDS011;68210;52.032;4.634;2023-06-14T10:34:29;5.05;;;1.98;;
78858;SDS011;68210;52.032;4.634;2023-06-14T10:38:32;4.78;;;1.92;;
78858;SDS011;68210;52.032;4.634;2023-06-14T10:40:34;4.60;;;1.65;;
78858;SDS011;68210;52.032;4.634;2023-06-14T10:42:36;3.55;;;2.28;;
78858;SDS011;68210;52.032;4.634;2023-06-14T10:46:46;3.92;;;2.05;;
78858;SDS011;68210;52.032;4.634;2023-06-14T10:48:47;2.80;;;1.50;;
78858;SDS011;68210;52.032;4.634;2023-06-14T10:50:47;2.95;;;1.60;;
78858;SDS011;68210;52.032;4.634;2023-06-14T10:52:49;3.15;;;1.95;;
78858;SDS011;68210;52.032;4.634;2023-06-14T10:57:25;3.60;;;1.77;;
78858;SDS011;68210;52.032;4.634;2023-06-14T10:59:26;2.85;;;1.55;;
78858;SDS011;68210;52.032;4.634;2023-06-14T11:04:06;4.72;;;1.70;;
78858;SDS011;68210;52.032;4.634;2023-06-14T11:06:12;1.98;;;1.55;;
78858;SDS011;68210;52.032;4.634;2023-06-14T11:10:46;3.88;;;1.50;;
78858;SDS011;68210;52.032;4.634;2023-06-14T11:12:47;2.15;;;1.33;;
78858;SDS011;68210;52.032;4.634;2023-06-14T11:14:48;3.03;;;1.40;;
78858;SDS011;68210;52.032;4.634;2023-06-14T11:16:49;5.65;;;1.73;;
78858;SDS011;68210;52.032;4.634;2023-06-14T11:18:50;5.55;;;1.45;;
78858;SDS011;68210;52.032;4.634;2023-06-14T11:20:50;2.60;;;1.40;;
78858;SDS011;68210;52.032;4.634;2023-06-14T11:22:51;2.40;;;1.58;;
78858;SDS011;68210;52.032;4.634;2023-06-14T11:24:52;5.32;;;1.95;;
78858;SDS011;68210;52.032;4.634;2023-06-14T11:26:53;3.40;;;1.80;;
78858;SDS011;68210;52.032;4.634;2023-06-14T11:29:00;2.30;;;1.38;;
78858;SDS011;68210;52.032;4.634;2023-06-14T11:31:01;3.70;;;1.70;;
78858;SDS011;68210;52.032;4.634;2023-06-14T11:33:03;5.15;;;1.70;;
78858;SDS011;68210;52.032;4.634;2023-06-14T11:35:04;2.83;;;1.60;;
78858;SDS011;68210;52.032;4.634;2023-06-14T11:37:05;4.45;;;2.17;;
78858;SDS011;68210;52.032;4.634;2023-06-14T11:39:06;4.93;;;1.92;;
78858;SDS011;68210;52.032;4.634;2023-06-14T11:41:09;7.55;;;1.80;;
78858;SDS011;68210;52.032;4.634;2023-06-14T11:43:10;2.50;;;1.38;;
78858;SDS011;68210;52.032;4.634;2023-06-14T11:45:11;4.07;;;1.27;;
78858;SDS011;68210;52.032;4.634;2023-06-14T11:47:12;2.53;;;1.48;;
78858;SDS011;68210;52.032;4.634;2023-06-14T11:49:12;3.47;;;1.33;;
78858;SDS011;68210;52.032;4.634;2023-06-14T11:51:13;3.72;;;1.27;;
78858;SDS011;68210;52.032;4.634;2023-06-14T11:53:14;3.35;;;1.33;;
78858;SDS011;68210;52.032;4.634;2023-06-14T11:55:16;3.67;;;1.40;;
78858;SDS011;68210;52.032;4.634;2023-06-14T11:57:17;2.70;;;1.50;;
78858;SDS011;68210;52.032;4.634;2023-06-14T11:59:18;1.88;;;1.42;;
78858;SDS011;68210;52.032;4.634;2023-06-14T12:03:24;4.13;;;1.40;;
78858;SDS011;68210;52.032;4.634;2023-06-14T12:05:25;2.42;;;1.55;;
78858;SDS011;68210;52.032;4.634;2023-06-14T12:07:28;2.70;;;1.50;;
78858;SDS011;68210;52.032;4.634;2023-06-14T12:09:31;4.47;;;1.80;;
78858;SDS011;68210;52.032;4.634;2023-06-14T12:11:33;1.83;;;1.40;;
78858;SDS011;68210;52.032;4.634;2023-06-14T12:13:37;6.57;;;1.63;;
78858;SDS011;68210;52.032;4.634;2023-06-14T12:15:38;1.77;;;1.27;;
78858;SDS011;68210;52.032;4.634;2023-06-14T12:17:38;3.58;;;1.70;;
78858;SDS011;68210;52.032;4.634;2023-06-14T12:19:42;4.40;;;1.77;;
78858;SDS011;68210;52.032;4.634;2023-06-14T12:21:47;4.47;;;1.70;;
78858;SDS011;68210;52.032;4.634;2023-06-14T12:23:52;4.68;;;1.75;;
78858;SDS011;68210;52.032;4.634;2023-06-14T12:25:52;2.78;;;1.58;;
78858;SDS011;68210;52.032;4.634;2023-06-14T12:27:54;3.28;;;1.48;;
78858;SDS011;68210;52.032;4.634;2023-06-14T12:29:58;4.20;;;1.92;;
78858;SDS011;68210;52.032;4.634;2023-06-14T12:31:59;2.22;;;1.42;;
78858;SDS011;68210;52.032;4.634;2023-06-14T12:34:00;3.42;;;1.70;;
78858;SDS011;68210;52.032;4.634;2023-06-14T12:36:02;3.22;;;1.40;;
78858;SDS011;68210;52.032;4.634;2023-06-14T12:38:04;9.15;;;1.40;;
78858;SDS011;68210;52.032;4.634;2023-06-14T12:40:04;2.70;;;1.63;;
78858;SDS011;68210;52.032;4.634;2023-06-14T12:42:05;3.83;;;1.50;;
78858;SDS011;68210;52.032;4.634;2023-06-14T12:44:06;5.45;;;1.50;;